Etusivu
METAR-TAF:

METAR-TAF

Lentoasemat :

Richard B. Russell Airport

Rome, Georgia, Yhdysvallat

Leveyspiiri: 34-20-52N, Pituuspiiri: 085-09-40W, korkeus merenpinnasta: 194 m

Tämänhetkinen sää

Tämä raportti tehtiin 46 minuuttia sitten, kello 07.53 UTC
tyyntä
Lämpötila 0°C
Kosteus 93%
Ilmanpaine 1025 hPa
Näkyvyys: 9.7 km
selkeää
utua

METAR: KRMG 110753Z AUTO 00000KT 6SM BR CLR 00/M01 A3026 RMK AO2 SLP247 T00001011

Aika: 03:39 (08:39 UTC)


TAF: puuttuu

Säähavainnot ja -ennusteet yli 4000 lentoasemalta (METAR- ja TAF-raportit).

Käytössä olevat sääasemat on merkitty karttaan keltaisilla ja punaisilla pisteillä.

Aseta hiiri pisteen päälle nähdäksesi sääaseman nimen.

Klikkaa sitten nähdäksesi säähavainnot ja -ennusteet.

Kartan vaihtaminen: klikkaa mustalla rastilla varustettuja vihreitä pisteitä, niin voit zoomata sisään; viivalla varustettua vihreää pistettä, niin voit zoomata ulos tai vihreitä nuolia, niin pääset viereisille kartoille.


METAR-TAF: